Latest Weather Observations for Central Arnhem Plateau

IDD60801

Issued at 5:31 pm CST Monday 25 September 2017 (issued every 30 minutes, with the page automatically refreshed every 10 minutes)

About weather observations | Map of weather stations | Latest weather observations for NT | Other Formats
Station Details ID: 014909 Name: CENTRAL ARNHEM PLATEAU Lat: -13.33 Lon: 133.09 Height: 416.0 m
Data from the previous 72 hours. | See also: Recent months at Central Arnhem Plateau
Date/Time
CST
Temp
°C
App
Temp
°C
Dew
Point
°C
Rel
Hum
%
Delta-T
°C
Wind Press
QNH
hPa
Press
MSL
hPa
Rain since
9am
mm
Dir  Spd
km/h
Gust
km/h
Spd
kts
Gust
kts
25/05:30pm 34.0 32.9 10.6 24 13.8 E 7 11 4 6 1010.7 1008.1 0.0
25/05:00pm 34.2 32.7 10.7 24 13.9 ESE 9 13 5 7 1010.5 1007.9 0.0
25/04:30pm 34.0 32.7 11.2 25 13.6 NNE 9 17 5 9 1010.5 1007.9 0.0
25/04:00pm 34.1 32.8 11.3 25 13.6 NNE 9 15 5 8 1010.5 1007.9 0.0
25/03:30pm 35.3 33.4 11.7 24 14.3 ENE 13 17 7 9 1010.7 1008.1 0.0
25/03:00pm 34.5 33.5 11.0 24 14.0 SSE 7 13 4 7 1011.1 1008.5 0.0
25/02:30pm 34.2 33.3 12.5 27 13.2 N 9 17 5 9 1011.7 1009.0 0.0
25/02:00pm 34.2 32.5 12.5 27 13.2 NE 13 20 7 11 1012.0 1009.3 0.0
25/01:30pm 33.1 31.5 12.7 29 12.4 NE 13 19 7 10 1012.4 1009.7 0.0
25/01:00pm 33.4 32.2 12.9 28 12.5 ENE 11 19 6 10 1012.8 1010.2 0.0
25/12:30pm 33.8 33.5 13.3 29 12.6 ENE 7 20 4 11 1013.5 1010.9 0.0
25/12:00pm 33.0 32.4 14.6 33 11.5 N 11 15 6 8 1014.0 1011.3 0.0
25/11:30am 31.1 31.1 15.1 38 10.0 S 9 15 5 8 1014.6 1011.9 0.0
25/11:00am 30.0 30.4 16.4 44 8.6 SW 9 17 5 9 1015.0 1012.4 0.0
25/10:30am 29.7 30.7 16.8 45 8.2 WSW 7 17 4 9 1015.3 1012.7 0.0
25/10:00am 29.0 30.5 17.5 49 7.4 NNW 6 13 3 7 1015.3 1012.7 0.0
25/09:30am 28.2 29.7 18.0 54 6.6 N 7 11 4 6 1015.6 1013.0 0.0
25/09:00am 26.8 27.9 18.1 59 5.6 WNW 9 13 5 7 1015.7 1013.1 0.0
25/08:30am 25.9 27.3 18.6 64 4.7 NW 9 13 5 7 1015.6 1013.0 0.0
25/08:00am 25.4 26.5 18.8 67 4.3 NNW 11 17 6 9 1015.4 1012.8 0.0
25/07:30am 24.4 25.5 18.8 71 3.6 WNW 11 15 6 8 1015.3 1012.7 0.0
25/07:00am 23.6 25.1 18.9 75 3.0 NW 9 15 5 8 1015.0 1012.4 0.0
25/06:30am 23.0 24.8 18.7 77 2.8 WNW 7 9 4 5 1014.8 1012.2 0.0
25/06:00am 23.0 24.4 18.7 77 2.8 WNW 9 13 5 7 1014.5 1011.8 0.0
25/05:30am 23.1 24.5 18.6 76 2.9 WNW 9 15 5 8 1014.2 1011.5 0.0
25/05:00am 23.2 24.5 18.5 75 3.0 WNW 9 13 5 7 1013.7 1011.1 0.0
25/04:30am 23.3 24.6 18.4 74 3.1 W 9 13 5 7 1013.5 1010.9 0.0
25/04:00am 23.5 24.8 18.4 73 3.3 WNW 9 15 5 8 1013.3 1010.7 0.0
25/03:30am 23.7 24.6 18.4 72 3.4 WNW 11 15 6 8 1013.3 1010.7 0.0
25/03:00am 24.0 24.1 18.4 71 3.6 WNW 15 20 8 11 1013.3 1010.7 0.0
25/02:30am 24.2 24.7 18.4 70 3.7 WNW 13 19 7 10 1013.3 1010.7 0.0
25/02:00am 24.4 24.5 18.3 69 3.9 NW 15 20 8 11 1013.4 1010.8 0.0
25/01:30am 24.7 25.1 18.2 67 4.2 WNW 13 17 7 9 1013.4 1010.8 0.0
25/01:00am 25.1 25.5 18.1 65 4.5 WNW 13 20 7 11 1013.6 1011.0 0.0
25/12:30am 25.4 25.8 18.1 64 4.7 NW 13 19 7 10 1013.7 1011.1 0.0
25/12:00am 25.6 25.2 18.0 63 4.9 NW 17 24 9 13 1013.9 1011.2 0.0
 
Date/Time
CST
Temp
°C
App
Temp
°C
Dew
Point
°C
Rel
Hum
%
Delta-T
°C
Wind Press
QNH
hPa
Press
MSL
hPa
Rain since
9am
mm
Dir  Spd
km/h
Gust
km/h
Spd
kts
Gust
kts
24/11:30pm 26.5 26.1 18.1 60 5.4 NW 17 22 9 12 1013.7 1011.1 0.0
24/11:00pm 26.8 27.7 18.4 60 5.4 NNW 11 15 6 8 1013.6 1011.0 0.0
24/10:30pm 27.2 27.6 18.2 58 5.8 NNW 13 17 7 9 1013.5 1010.9 0.0
24/10:00pm 27.7 28.5 18.1 56 6.2 NNW 11 17 6 9 1013.4 1010.8 0.0
24/09:30pm 28.0 29.7 18.4 56 6.2 N 7 13 4 7 1013.2 1010.6 0.0
24/09:00pm 28.5 28.9 18.9 56 6.3 NNW 15 22 8 12 1012.7 1010.1 0.0
24/08:30pm 29.2 28.7 18.6 52 6.9 NNW 19 28 10 15 1012.3 1009.6 0.0
24/08:00pm 30.3 29.4 18.1 48 7.9 NNW 20 30 11 16 1011.7 1009.0 0.0
24/07:30pm 32.1 32.0 10.8 27 12.5 NNE 2 6 1 3 1011.0 1008.4 0.0
24/07:00pm 32.8 31.8 10.2 25 13.2 N 6 9 3 5 1010.7 1008.1 0.0
24/06:30pm 33.5 32.3 9.5 23 13.9 NNE 6 7 3 4 1010.5 1007.9 0.0
24/06:00pm 34.5 33.1 9.0 21 14.8 E 6 9 3 5 1010.2 1007.5 0.0
24/05:30pm 35.2 33.6 8.9 20 15.2 E 7 13 4 7 1010.1 1007.4 0.0
24/05:00pm 35.6 34.1 9.2 20 15.4 WSW 7 13 4 7 1009.9 1007.2 0.0
24/04:30pm 35.5 34.0 9.1 20 15.4 E 7 13 4 7 1009.8 1007.1 0.0
24/04:00pm 35.4 34.0 9.0 20 15.3 SW 6 11 3 6 1010.1 1007.4 0.0
24/03:30pm 35.3 33.2 9.7 21 15.0 E 11 22 6 12 1010.3 1007.6 0.0
24/03:00pm 35.8 33.0 10.1 21 15.2 NE 15 26 8 14 1010.7 1008.1 0.0
24/02:30pm 35.5 33.6 10.5 22 14.9 ENE 11 20 6 11 1011.0 1008.4 0.0
24/02:00pm 34.9 32.7 10.7 23 14.4 E 13 24 7 13 1011.4 1008.7 0.0
24/01:30pm 35.4 34.1 11.1 23 14.6 ENE 9 15 5 8 1012.0 1009.3 0.0
24/01:00pm 33.4 31.9 10.7 25 13.4 NNE 9 20 5 11 1012.6 1009.9 0.0
24/12:30pm 33.9 31.2 10.5 24 13.8 ENE 15 26 8 14 1013.0 1010.4 0.0
24/12:00pm 33.0 30.7 10.4 25 13.3 NE 13 20 7 11 1013.6 1011.0 0.0
24/11:30am 31.9 30.2 11.1 28 12.3 ENE 11 20 6 11 1014.1 1011.4 0.0
24/11:00am 31.9 30.3 11.7 29 12.0 E 11 17 6 9 1014.6 1011.9 0.0
24/10:30am 31.0 29.7 11.4 30 11.6 NE 9 19 5 10 1014.9 1012.3 0.0
24/10:00am 30.2 28.8 12.1 32 10.8 NE 11 20 6 11 1015.3 1012.7 0.0
24/09:30am 28.6 30.0 16.5 48 7.7 N 4 11 2 6 1015.6 1013.0 0.0
24/09:00am 26.1 27.2 17.2 58 5.6 W 7 11 4 6 1015.6 1013.0 0.0
24/08:30am 24.9 26.2 18.4 67 4.2 WNW 9 15 5 8 1015.5 1012.9 0.0
24/08:00am 24.0 25.1 18.9 73 3.3 W 11 15 6 8 1015.3 1012.7 0.0
24/07:30am 23.1 24.1 18.6 76 2.9 W 11 13 6 7 1015.2 1012.6 0.0
24/07:00am 22.5 23.8 18.5 78 2.6 W 9 11 5 6 1015.0 1012.4 0.0
24/06:30am 22.0 23.1 18.0 78 2.5 W 9 11 5 6 1014.8 1012.2 0.0
24/06:00am 22.2 22.8 17.8 76 2.8 W 11 15 6 8 1014.4 1011.7 0.0
24/05:30am 22.3 23.1 17.4 74 3.1 WNW 9 13 5 7 1014.4 1011.7 0.0
24/05:00am 22.5 22.4 17.0 71 3.4 WNW 13 17 7 9 1014.4 1011.7 0.0
24/04:30am 22.8 22.6 16.8 69 3.7 W 13 17 7 9 1014.3 1011.6 0.0
24/04:00am 23.1 23.1 16.2 65 4.3 W 11 15 6 8 1014.3 1011.6 0.0
24/03:30am 23.4 23.5 16.4 64 4.3 W 11 17 6 9 1014.3 1011.6 0.0
24/03:00am 23.7 23.5 16.7 65 4.4 W 13 15 7 8 1014.1 1011.4 0.0
24/02:30am 24.1 24.4 15.9 60 5.1 W 9 13 5 7 1014.3 1011.6 0.0
24/02:00am 24.8 25.7 16.2 58 5.3 NNW 6 7 3 4 1014.4 1011.7 0.0
24/01:30am 25.1 25.8 16.0 57 5.6 NNW 7 9 4 5 1014.5 1011.8 0.0
24/01:00am 25.4 25.7 15.1 53 6.3 N 7 9 4 5 1014.6 1011.9 0.0
24/12:30am 25.6 25.7 14.4 50 6.8 NW 7 9 4 5 1014.8 1012.2 0.0
24/12:00am 25.9 25.9 14.1 48 7.1 N 7 9 4 5 1014.8 1012.2 0.0
 
Date/Time
CST
Temp
°C
App
Temp
°C
Dew
Point
°C
Rel
Hum
%
Delta-T
°C
Wind Press
QNH
hPa
Press
MSL
hPa
Rain since
9am
mm
Dir  Spd
km/h
Gust
km/h
Spd
kts
Gust
kts
23/11:30pm 25.9 25.6 13.4 46 7.5 NNE 7 9 4 5 1015.0 1012.4 0.0
23/11:00pm 27.0 26.4 13.4 43 8.2 NNW 9 13 5 7 1014.8 1012.2 0.0
23/10:30pm 27.6 26.3 12.4 39 9.0 NNW 11 15 6 8 1014.8 1012.2 0.0
23/10:00pm 28.3 27.2 11.8 36 9.7 N 9 13 5 7 1014.5 1011.8 0.0
23/09:30pm 29.1 27.9 11.6 33 10.3 N 9 15 5 8 1014.3 1011.6 0.0
23/09:00pm 29.8 28.1 11.3 32 10.9 NNW 11 17 6 9 1013.9 1011.2 0.0
23/08:30pm 31.8 30.1 9.9 26 12.7 E 9 11 5 6 1013.1 1010.5 0.0
23/08:00pm 32.1 30.9 10.2 26 12.8 ESE 7 9 4 5 1012.8 1010.2 0.0
23/07:30pm 32.3 31.2 9.8 25 13.0 ENE 6 9 3 5 1012.5 1009.8 0.0
23/07:00pm 32.9 31.7 9.7 24 13.5 E 6 9 3 5 1012.2 1009.5 0.0
23/06:30pm 33.5 32.1 8.9 22 14.1 SE 6 9 3 5 1012.0 1009.3 0.0
23/06:00pm 33.7 31.8 9.0 22 14.2 E 9 13 5 7 1011.9 1009.2 0.0
23/05:30pm 34.0 31.6 8.6 21 14.6 ENE 11 15 6 8 1011.7 1009.0 0.0
23/05:00pm 34.1 31.7 8.7 21 14.6 SSE 11 15 6 8 1011.5 1008.8 0.0
23/04:30pm 34.1 32.1 8.7 21 14.6 E 9 19 5 10 1011.5 1008.8 0.0
23/04:00pm 34.3 31.6 8.8 21 14.7 SSE 13 20 7 11 1011.5 1008.8 0.0
23/03:30pm 34.7 32.8 9.2 21 14.8 ENE 9 15 5 8 1011.7 1009.0 0.0
23/03:00pm 34.3 31.9 8.8 21 14.7 NNE 11 32 6 17 1012.0 1009.3 0.0
23/02:30pm 35.3 32.8 9.7 21 15.0 ESE 13 20 7 11 1012.5 1009.8 0.0
23/02:00pm 34.6 31.0 9.8 22 14.5 ESE 19 32 10 17 1012.9 1010.3 0.0
23/01:30pm 34.5 30.7 9.7 22 14.5 E 20 28 11 15 1013.3 1010.7 0.0
23/01:00pm 34.4 31.5 10.9 24 14.0 ENE 17 28 9 15 1013.9 1011.2 0.0
23/12:30pm 32.3 30.0 10.4 26 12.8 SE 13 22 7 12 1014.5 1011.8 0.0
23/12:00pm 32.2 28.9 10.8 27 12.6 ENE 19 26 10 14 1015.0 1012.4 0.0
23/11:30am 31.3 28.6 11.7 30 11.6 ENE 17 32 9 17 1015.6 1013.0 0.0
23/11:00am 31.6 29.8 13.4 33 11.1 ENE 15 24 8 13 1016.0 1013.4 0.0
23/10:30am 29.8 28.2 14.0 38 9.7 E 15 22 8 12 1016.5 1013.8 0.0
23/10:00am 29.1 28.5 14.5 41 9.0 ENE 11 19 6 10 1016.8 1014.1 0.0
23/09:30am 27.8 27.7 16.1 49 7.3 NE 11 19 6 10 1016.9 1014.2 0.0
23/09:00am 27.1 27.9 16.4 52 6.7 ENE 7 11 4 6 1016.9 1014.2 0.0
23/08:30am 25.5 27.3 18.2 64 4.7 WNW 6 9 3 5 1016.7 1014.0 0.0
23/08:00am 24.3 25.9 18.2 68 3.9 W 7 11 4 6 1016.5 1013.8 0.0
23/07:30am 23.7 25.1 18.6 73 3.3 W 9 13 5 7 1016.1 1013.5 0.0
23/07:00am 23.0 24.3 18.5 76 2.9 W 9 13 5 7 1015.7 1013.1 0.0
23/06:30am 22.5 23.8 18.5 78 2.6 W 9 11 5 6 1015.5 1012.9 0.0
23/06:00am 22.7 24.0 18.5 77 2.7 W 9 13 5 7 1015.3 1012.7 0.0
23/05:30am 22.9 24.0 18.0 74 3.1 W 9 13 5 7 1015.0 1012.4 0.0
23/05:00am 23.1 24.1 17.8 72 3.4 W 9 13 5 7 1014.8 1012.2 0.0
23/04:30am 23.4 24.3 17.6 70 3.7 W 9 11 5 6 1014.7 1012.0 0.0
23/04:00am 23.6 24.2 17.6 69 3.8 WNW 11 15 6 8 1014.7 1012.0 0.0
23/03:30am 23.8 24.7 17.5 68 4.0 NW 9 11 5 6 1014.6 1011.9 0.0
23/03:00am 23.9 26.2 16.7 64 4.5 CALM 0 0 0 0 1014.7 1012.0 0.0
23/02:30am 24.8 27.3 17.3 63 4.7 CALM 0 0 0 0 1015.0 1012.4 0.0
23/02:00am 25.5 28.2 17.7 62 5.0 CALM 0 0 0 0 1015.0 1012.4 0.0
23/01:30am 25.8 27.3 17.7 61 5.2 ENE 6 9 3 5 1015.2 1012.6 0.0
23/01:00am 25.4 26.8 17.3 61 5.1 ENE 6 7 3 4 1015.3 1012.7 0.0
23/12:30am 25.7 26.4 17.1 59 5.4 ENE 9 11 5 6 1015.3 1012.7 0.0
23/12:00am 26.0 27.2 16.8 57 5.8 NNE 6 9 3 5 1015.4 1012.8 0.0
 
Date/Time
CST
Temp
°C
App
Temp
°C
Dew
Point
°C
Rel
Hum
%
Delta-T
°C
Wind Press
QNH
hPa
Press
MSL
hPa
Rain since
9am
mm
Dir  Spd
km/h
Gust
km/h
Spd
kts
Gust
kts
22/11:30pm 26.6 27.6 16.8 55 6.2 NNE 7 11 4 6 1015.4 1012.8 0.0
22/11:00pm 27.1 26.6 17.0 54 6.4 NNE 15 22 8 12 1015.5 1012.9 0.0
22/10:30pm 27.6 27.9 15.9 49 7.3 N 9 13 5 7 1015.5 1012.9 0.0
22/10:00pm 28.2 27.5 15.5 46 7.9 NW 13 20 7 11 1015.0 1012.4 0.0
22/09:30pm 27.6 27.5 9.4 32 10.3 CALM 0 4 0 2 1014.4 1011.7 0.0
22/09:00pm 28.3 27.1 9.6 31 10.6 ENE 6 7 3 4 1014.2 1011.5 0.0
22/08:30pm 29.1 28.7 9.8 30 11.0 ENE 2 6 1 3 1013.9 1011.2 0.0
22/08:00pm 29.2 27.6 8.8 28 11.5 ENE 7 9 4 5 1013.5 1010.9 0.0
22/07:30pm 31.0 29.0 8.7 25 12.6 ESE 9 11 5 6 1013.1 1010.5 0.0
22/07:00pm 31.6 29.6 8.6 24 13.0 ESE 9 11 5 6 1012.7 1010.1 0.0
22/06:30pm 32.5 30.0 8.0 22 13.8 ESE 11 13 6 7 1012.4 1009.7 0.0
22/06:00pm 33.7 30.3 7.6 20 14.7 ESE 15 19 8 10 1012.1 1009.4 0.0

Other Formats:

Comma delimited format used in spreadsheet applications
http://www.bom.gov.au/fwo/IDD60801/IDD60801.94141.axf

JavaScript Object Notation format (JSON) in row-major order
http://www.bom.gov.au/fwo/IDD60801/IDD60801.94141.json